Uakit, Russia
Current Conditions -  °F | °C
As of 5:00 AM on Sunday 26 Oct 2014 (Local Time) from UIAA Reporting Station
Clear Clear  
Wind Chill:   Ceiling: Unl
Heat Index:   Visibility: 6mi
Dew Point: -2°   Wind: 0mph
Humidity: 67%   Direction: NA
Pressure: 30.48"   Gusts: NA
Location:  55.5°N, 113.63°E
Report Text: UIAA 252100Z 00000MPS 9999 SKC M14/M19 Q1032 NOSIG RMK QFE71429CLRD70
Loading
Personal Weather Stations






























Interactive Weather Map
Tropical Storm Tracking
New forecast layout! Learn more

10-Day Weather Forecast

Advertisements
Track Severe Weather on mobile